sensor_id;sensor_type;location;lat;lon;timestamp;pressure;altitude;pressure_sealevel;temperature;humidity
65151;BME280;51918;51.856;0.150;2022-08-19T00:01:32;100363.34;;;19.42;60.47
65151;BME280;51918;51.856;0.150;2022-08-19T00:06:34;100369.56;;;19.41;61.07
65151;BME280;51918;51.856;0.150;2022-08-19T00:11:37;100373.91;;;19.47;61.12
65151;BME280;51918;51.856;0.150;2022-08-19T00:16:40;100376.63;;;19.52;61.09
65151;BME280;51918;51.856;0.150;2022-08-19T00:21:40;100377.00;;;19.56;61.43
65151;BME280;51918;51.856;0.150;2022-08-19T00:26:43;100373.44;;;19.50;62.00
65151;BME280;51918;51.856;0.150;2022-08-19T00:31:45;100377.31;;;19.47;61.89
65151;BME280;51918;51.856;0.150;2022-08-19T00:36:45;100376.53;;;19.59;61.37
65151;BME280;51918;51.856;0.150;2022-08-19T00:41:48;100370.53;;;19.58;61.58
65151;BME280;51918;51.856;0.150;2022-08-19T00:46:51;100363.69;;;19.57;61.89
65151;BME280;51918;51.856;0.150;2022-08-19T00:51:54;100360.19;;;19.52;62.50
65151;BME280;51918;51.856;0.150;2022-08-19T00:57:00;100358.94;;;19.54;62.61
65151;BME280;51918;51.856;0.150;2022-08-19T01:02:02;100354.41;;;19.61;62.15
65151;BME280;51918;51.856;0.150;2022-08-19T01:07:02;100364.41;;;19.64;62.32
65151;BME280;51918;51.856;0.150;2022-08-19T01:12:04;100353.06;;;19.71;62.48
65151;BME280;51918;51.856;0.150;2022-08-19T01:17:06;100344.09;;;19.66;62.52
65151;BME280;51918;51.856;0.150;2022-08-19T01:22:11;100349.31;;;19.66;63.23
65151;BME280;51918;51.856;0.150;2022-08-19T01:27:15;100354.19;;;19.63;63.69
65151;BME280;51918;51.856;0.150;2022-08-19T01:32:16;100355.09;;;19.68;63.23
65151;BME280;51918;51.856;0.150;2022-08-19T01:37:17;100364.09;;;19.73;63.48
65151;BME280;51918;51.856;0.150;2022-08-19T01:42:19;100364.88;;;19.73;63.69
65151;BME280;51918;51.856;0.150;2022-08-19T01:47:20;100363.50;;;19.71;64.39
65151;BME280;51918;51.856;0.150;2022-08-19T01:52:20;100357.47;;;19.70;64.40
65151;BME280;51918;51.856;0.150;2022-08-19T01:57:22;100359.06;;;19.71;64.22
65151;BME280;51918;51.856;0.150;2022-08-19T02:02:23;100355.66;;;19.82;64.20
65151;BME280;51918;51.856;0.150;2022-08-19T02:07:23;100359.06;;;19.83;64.16
65151;BME280;51918;51.856;0.150;2022-08-19T02:12:25;100363.72;;;19.81;64.10
65151;BME280;51918;51.856;0.150;2022-08-19T02:17:26;100361.47;;;19.73;65.01
65151;BME280;51918;51.856;0.150;2022-08-19T02:22:27;100359.44;;;19.75;65.09
65151;BME280;51918;51.856;0.150;2022-08-19T02:27:29;100364.75;;;19.80;65.09
65151;BME280;51918;51.856;0.150;2022-08-19T02:32:29;100360.56;;;19.91;64.99
65151;BME280;51918;51.856;0.150;2022-08-19T02:37:30;100370.88;;;19.97;64.80
65151;BME280;51918;51.856;0.150;2022-08-19T02:42:32;100370.88;;;19.97;65.22
65151;BME280;51918;51.856;0.150;2022-08-19T02:47:33;100378.38;;;20.05;64.71
65151;BME280;51918;51.856;0.150;2022-08-19T02:52:34;100376.22;;;19.91;65.85
65151;BME280;51918;51.856;0.150;2022-08-19T02:57:36;100373.84;;;20.01;65.15
65151;BME280;51918;51.856;0.150;2022-08-19T03:02:37;100377.13;;;19.96;65.57
65151;BME280;51918;51.856;0.150;2022-08-19T03:07:37;100374.72;;;20.06;65.65
65151;BME280;51918;51.856;0.150;2022-08-19T03:12:39;100383.25;;;20.14;65.48
65151;BME280;51918;51.856;0.150;2022-08-19T03:17:40;100384.41;;;20.18;65.17
65151;BME280;51918;51.856;0.150;2022-08-19T03:22:40;100390.75;;;20.10;65.94
65151;BME280;51918;51.856;0.150;2022-08-19T03:27:42;100381.66;;;20.13;65.35
65151;BME280;51918;51.856;0.150;2022-08-19T03:32:43;100387.78;;;20.06;66.04
65151;BME280;51918;51.856;0.150;2022-08-19T03:37:43;100379.19;;;19.94;66.41
65151;BME280;51918;51.856;0.150;2022-08-19T03:42:46;100377.69;;;19.98;65.70
65151;BME280;51918;51.856;0.150;2022-08-19T03:47:46;100373.03;;;20.00;65.67
65151;BME280;51918;51.856;0.150;2022-08-19T03:52:48;100373.72;;;19.96;65.26
65151;BME280;51918;51.856;0.150;2022-08-19T03:57:50;100381.34;;;19.85;66.11
65151;BME280;51918;51.856;0.150;2022-08-19T04:02:51;100380.31;;;19.86;66.05
65151;BME280;51918;51.856;0.150;2022-08-19T04:07:51;100387.34;;;19.86;66.20
65151;BME280;51918;51.856;0.150;2022-08-19T04:12:53;100377.91;;;19.85;66.43
65151;BME280;51918;51.856;0.150;2022-08-19T04:17:54;100373.25;;;19.87;66.10
65151;BME280;51918;51.856;0.150;2022-08-19T04:22:56;100377.69;;;19.86;66.18
65151;BME280;51918;51.856;0.150;2022-08-19T04:27:58;100380.19;;;19.81;66.04
65151;BME280;51918;51.856;0.150;2022-08-19T04:32:59;100378.25;;;19.77;66.68
65151;BME280;51918;51.856;0.150;2022-08-19T04:37:59;100381.41;;;19.79;66.54
65151;BME280;51918;51.856;0.150;2022-08-19T04:43:01;100383.03;;;19.80;66.37
65151;BME280;51918;51.856;0.150;2022-08-19T04:48:02;100391.78;;;19.85;66.47
65151;BME280;51918;51.856;0.150;2022-08-19T04:53:03;100385.31;;;19.88;66.53
65151;BME280;51918;51.856;0.150;2022-08-19T04:58:05;100396.41;;;19.95;66.45
65151;BME280;51918;51.856;0.150;2022-08-19T05:03:05;100391.19;;;19.95;67.21
65151;BME280;51918;51.856;0.150;2022-08-19T05:08:06;100395.16;;;19.98;67.21
65151;BME280;51918;51.856;0.150;2022-08-19T05:13:08;100402.31;;;19.91;67.70
65151;BME280;51918;51.856;0.150;2022-08-19T05:18:09;100412.19;;;19.88;68.17
65151;BME280;51918;51.856;0.150;2022-08-19T05:23:10;100411.97;;;19.90;68.03
65151;BME280;51918;51.856;0.150;2022-08-19T05:28:12;100401.28;;;19.92;68.46
65151;BME280;51918;51.856;0.150;2022-08-19T05:33:12;100406.31;;;19.81;69.94
65151;BME280;51918;51.856;0.150;2022-08-19T05:38:13;100417.41;;;19.88;69.33
65151;BME280;51918;51.856;0.150;2022-08-19T05:43:15;100413.13;;;20.06;68.71
65151;BME280;51918;51.856;0.150;2022-08-19T05:48:16;100406.41;;;20.22;68.38
65151;BME280;51918;51.856;0.150;2022-08-19T05:53:16;100424.13;;;20.20;68.47
65151;BME280;51918;51.856;0.150;2022-08-19T05:58:18;100431.53;;;20.35;68.35
65151;BME280;51918;51.856;0.150;2022-08-19T06:03:19;100439.59;;;20.57;67.72
65151;BME280;51918;51.856;0.150;2022-08-19T06:08:20;100438.53;;;20.69;66.91
65151;BME280;51918;51.856;0.150;2022-08-19T06:13:22;100431.38;;;20.65;66.58
65151;BME280;51918;51.856;0.150;2022-08-19T06:18:22;100429.53;;;20.77;65.93
65151;BME280;51918;51.856;0.150;2022-08-19T06:23:23;100433.34;;;20.86;65.49
65151;BME280;51918;51.856;0.150;2022-08-19T06:28:25;100432.22;;;21.06;64.69
65151;BME280;51918;51.856;0.150;2022-08-19T06:33:26;100431.16;;;21.07;63.62
65151;BME280;51918;51.856;0.150;2022-08-19T06:38:26;100439.25;;;21.34;63.31
65151;BME280;51918;51.856;0.150;2022-08-19T06:43:28;100443.66;;;21.62;62.04
65151;BME280;51918;51.856;0.150;2022-08-19T06:48:29;100440.88;;;21.69;61.24
65151;BME280;51918;51.856;0.150;2022-08-19T06:53:30;100443.03;;;21.89;61.04
65151;BME280;51918;51.856;0.150;2022-08-19T06:58:32;100452.16;;;22.20;60.01
65151;BME280;51918;51.856;0.150;2022-08-19T07:03:34;100465.75;;;22.56;58.72
65151;BME280;51918;51.856;0.150;2022-08-19T07:08:36;100457.78;;;22.68;57.67
65151;BME280;51918;51.856;0.150;2022-08-19T07:13:39;100462.13;;;22.79;57.10
65151;BME280;51918;51.856;0.150;2022-08-19T07:18:40;100471.69;;;22.90;56.97
65151;BME280;51918;51.856;0.150;2022-08-19T07:23:41;100468.25;;;23.12;56.15
65151;BME280;51918;51.856;0.150;2022-08-19T07:28:43;100474.53;;;23.11;55.31
65151;BME280;51918;51.856;0.150;2022-08-19T07:33:47;100469.16;;;23.23;55.04
65151;BME280;51918;51.856;0.150;2022-08-19T07:38:49;100478.00;;;23.17;54.61
65151;BME280;51918;51.856;0.150;2022-08-19T07:43:52;100478.22;;;23.32;54.36
65151;BME280;51918;51.856;0.150;2022-08-19T07:48:52;100470.75;;;23.83;54.91
65151;BME280;51918;51.856;0.150;2022-08-19T07:53:53;100466.88;;;24.76;52.62
65151;BME280;51918;51.856;0.150;2022-08-19T07:58:56;100473.94;;;25.64;50.34
65151;BME280;51918;51.856;0.150;2022-08-19T08:03:57;100485.16;;;26.57;46.98
65151;BME280;51918;51.856;0.150;2022-08-19T08:08:58;100478.81;;;27.18;45.03
65151;BME280;51918;51.856;0.150;2022-08-19T08:14:01;100489.03;;;27.64;43.77
65151;BME280;51918;51.856;0.150;2022-08-19T08:19:03;100488.50;;;27.96;41.00
65151;BME280;51918;51.856;0.150;2022-08-19T08:24:04;100485.84;;;28.26;41.00
65151;BME280;51918;51.856;0.150;2022-08-19T08:29:06;100475.50;;;28.53;39.12
65151;BME280;51918;51.856;0.150;2022-08-19T08:34:07;100482.38;;;28.97;37.62
65151;BME280;51918;51.856;0.150;2022-08-19T08:39:09;100477.72;;;29.46;38.52
65151;BME280;51918;51.856;0.150;2022-08-19T08:44:14;100471.38;;;30.35;36.77
65151;BME280;51918;51.856;0.150;2022-08-19T08:49:24;100473.44;;;31.02;35.65
65151;BME280;51918;51.856;0.150;2022-08-19T08:54:32;100472.97;;;31.45;33.81
65151;BME280;51918;51.856;0.150;2022-08-19T08:59:35;100475.78;;;32.03;34.02
65151;BME280;51918;51.856;0.150;2022-08-19T09:04:37;100484.22;;;32.36;32.10
65151;BME280;51918;51.856;0.150;2022-08-19T09:09:40;100480.63;;;32.41;31.83
65151;BME280;51918;51.856;0.150;2022-08-19T09:14:47;100484.16;;;33.02;30.01
65151;BME280;51918;51.856;0.150;2022-08-19T09:19:51;100472.97;;;33.44;30.24
65151;BME280;51918;51.856;0.150;2022-08-19T09:24:53;100472.94;;;33.61;28.51
65151;BME280;51918;51.856;0.150;2022-08-19T09:29:55;100466.22;;;34.32;27.49
65151;BME280;51918;51.856;0.150;2022-08-19T09:35:01;100460.94;;;35.07;27.33
65151;BME280;51918;51.856;0.150;2022-08-19T09:40:02;100467.28;;;35.82;26.10
65151;BME280;51918;51.856;0.150;2022-08-19T09:45:06;100469.13;;;36.43;24.96
65151;BME280;51918;51.856;0.150;2022-08-19T09:50:09;100469.78;;;36.92;24.59
65151;BME280;51918;51.856;0.150;2022-08-19T09:55:11;100464.72;;;37.63;24.24
65151;BME280;51918;51.856;0.150;2022-08-19T10:00:14;100465.50;;;37.80;22.94
65151;BME280;51918;51.856;0.150;2022-08-19T10:05:15;100466.91;;;38.09;23.32
65151;BME280;51918;51.856;0.150;2022-08-19T10:10:15;100467.28;;;38.43;22.66
65151;BME280;51918;51.856;0.150;2022-08-19T10:15:18;100482.16;;;38.21;22.50
65151;BME280;51918;51.856;0.150;2022-08-19T10:20:18;100481.22;;;38.13;22.02
65151;BME280;51918;51.856;0.150;2022-08-19T10:25:19;100473.66;;;38.54;21.97
65151;BME280;51918;51.856;0.150;2022-08-19T10:30:21;100468.06;;;38.82;20.49
65151;BME280;51918;51.856;0.150;2022-08-19T10:35:21;100479.38;;;38.91;21.19
65151;BME280;51918;51.856;0.150;2022-08-19T10:40:25;100482.78;;;38.88;20.84
65151;BME280;51918;51.856;0.150;2022-08-19T10:45:27;100474.38;;;39.32;21.04
65151;BME280;51918;51.856;0.150;2022-08-19T10:50:28;100479.06;;;39.85;19.83
65151;BME280;51918;51.856;0.150;2022-08-19T10:55:28;100481.47;;;40.17;19.13
65151;BME280;51918;51.856;0.150;2022-08-19T11:00:30;100473.59;;;39.55;19.39
65151;BME280;51918;51.856;0.150;2022-08-19T11:05:31;100467.97;;;39.41;18.60
65151;BME280;51918;51.856;0.150;2022-08-19T11:10:31;100470.56;;;38.71;19.34
65151;BME280;51918;51.856;0.150;2022-08-19T11:15:33;100473.03;;;38.80;20.46
65151;BME280;51918;51.856;0.150;2022-08-19T11:20:34;100467.88;;;38.71;19.75
65151;BME280;51918;51.856;0.150;2022-08-19T11:25:34;100481.94;;;38.10;19.98
65151;BME280;51918;51.856;0.150;2022-08-19T11:30:40;100471.19;;;38.10;20.05
65151;BME280;51918;51.856;0.150;2022-08-19T11:35:40;100478.66;;;38.20;20.36
65151;BME280;51918;51.856;0.150;2022-08-19T11:40:41;100484.31;;;38.31;19.99
65151;BME280;51918;51.856;0.150;2022-08-19T11:45:44;100491.91;;;38.45;19.12
65151;BME280;51918;51.856;0.150;2022-08-19T11:50:44;100494.97;;;38.27;18.79
65151;BME280;51918;51.856;0.150;2022-08-19T11:55:45;100493.13;;;37.96;18.49
65151;BME280;51918;51.856;0.150;2022-08-19T12:00:47;100501.59;;;37.66;18.58
65151;BME280;51918;51.856;0.150;2022-08-19T12:05:48;100511.81;;;36.88;18.84
65151;BME280;51918;51.856;0.150;2022-08-19T12:10:48;100514.81;;;36.09;18.80
65151;BME280;51918;51.856;0.150;2022-08-19T12:15:50;100511.31;;;35.97;19.75
65151;BME280;51918;51.856;0.150;2022-08-19T12:20:52;100520.84;;;36.31;19.88
65151;BME280;51918;51.856;0.150;2022-08-19T12:25:53;100512.00;;;37.52;18.58
65151;BME280;51918;51.856;0.150;2022-08-19T12:30:56;100508.34;;;37.76;18.78
65151;BME280;51918;51.856;0.150;2022-08-19T12:36:00;100500.44;;;38.50;18.45
65151;BME280;51918;51.856;0.150;2022-08-19T12:41:02;100505.72;;;39.44;17.19
65151;BME280;51918;51.856;0.150;2022-08-19T12:46:05;100502.69;;;40.22;16.33
65151;BME280;51918;51.856;0.150;2022-08-19T12:51:08;100508.94;;;40.57;16.03
65151;BME280;51918;51.856;0.150;2022-08-19T12:56:10;100505.63;;;41.04;15.32
65151;BME280;51918;51.856;0.150;2022-08-19T13:01:14;100491.41;;;41.07;15.04
65151;BME280;51918;51.856;0.150;2022-08-19T13:06:15;100488.91;;;40.88;15.19
65151;BME280;51918;51.856;0.150;2022-08-19T13:11:18;100485.19;;;41.03;13.95
65151;BME280;51918;51.856;0.150;2022-08-19T13:16:21;100492.63;;;41.13;14.12
65151;BME280;51918;51.856;0.150;2022-08-19T13:21:23;100483.31;;;41.07;13.93
65151;BME280;51918;51.856;0.150;2022-08-19T13:26:24;100477.03;;;40.62;12.73
65151;BME280;51918;51.856;0.150;2022-08-19T13:31:28;100483.59;;;40.34;13.53
65151;BME280;51918;51.856;0.150;2022-08-19T13:36:30;100483.25;;;40.06;13.50
65151;BME280;51918;51.856;0.150;2022-08-19T13:41:30;100475.09;;;39.76;13.86
65151;BME280;51918;51.856;0.150;2022-08-19T13:46:32;100470.88;;;39.09;14.04
65151;BME280;51918;51.856;0.150;2022-08-19T13:51:33;100471.50;;;39.02;14.85
65151;BME280;51918;51.856;0.150;2022-08-19T13:56:34;100477.03;;;39.09;14.94
65151;BME280;51918;51.856;0.150;2022-08-19T14:01:37;100466.72;;;38.92;14.53
65151;BME280;51918;51.856;0.150;2022-08-19T14:06:38;100461.06;;;37.87;14.73
65151;BME280;51918;51.856;0.150;2022-08-19T14:11:38;100452.13;;;37.36;15.26
65151;BME280;51918;51.856;0.150;2022-08-19T14:16:40;100446.41;;;36.93;15.38
65151;BME280;51918;51.856;0.150;2022-08-19T14:21:41;100455.44;;;35.95;16.66
65151;BME280;51918;51.856;0.150;2022-08-19T14:26:42;100453.91;;;35.82;17.26
65151;BME280;51918;51.856;0.150;2022-08-19T14:31:44;100441.91;;;35.55;17.02
65151;BME280;51918;51.856;0.150;2022-08-19T14:36:44;100450.09;;;35.25;17.08
65151;BME280;51918;51.856;0.150;2022-08-19T14:41:45;100454.25;;;34.59;17.02
65151;BME280;51918;51.856;0.150;2022-08-19T14:46:47;100465.63;;;33.41;17.33
65151;BME280;51918;51.856;0.150;2022-08-19T14:51:47;100463.16;;;32.75;17.84
65151;BME280;51918;51.856;0.150;2022-08-19T14:56:50;100460.16;;;32.10;18.49
65151;BME280;51918;51.856;0.150;2022-08-19T15:01:52;100466.34;;;31.34;19.56
65151;BME280;51918;51.856;0.150;2022-08-19T15:06:52;100459.47;;;31.11;19.91
65151;BME280;51918;51.856;0.150;2022-08-19T15:11:53;100464.38;;;30.39;20.19
65151;BME280;51918;51.856;0.150;2022-08-19T15:16:55;100474.66;;;29.86;21.06
65151;BME280;51918;51.856;0.150;2022-08-19T15:21:56;100475.13;;;29.22;21.92
65151;BME280;51918;51.856;0.150;2022-08-19T15:26:56;100473.69;;;28.73;22.45
65151;BME280;51918;51.856;0.150;2022-08-19T15:31:58;100480.03;;;28.29;23.07
65151;BME280;51918;51.856;0.150;2022-08-19T15:37:00;100485.91;;;28.20;23.50
65151;BME280;51918;51.856;0.150;2022-08-19T15:42:01;100474.97;;;28.03;23.72
65151;BME280;51918;51.856;0.150;2022-08-19T15:47:04;100480.19;;;27.45;23.84
65151;BME280;51918;51.856;0.150;2022-08-19T15:52:05;100485.69;;;27.09;24.42
65151;BME280;51918;51.856;0.150;2022-08-19T15:57:06;100488.44;;;26.93;24.55
65151;BME280;51918;51.856;0.150;2022-08-19T16:02:08;100480.25;;;26.90;24.38
65151;BME280;51918;51.856;0.150;2022-08-19T16:07:08;100496.19;;;26.69;25.04
65151;BME280;51918;51.856;0.150;2022-08-19T16:12:09;100503.88;;;26.55;25.27
65151;BME280;51918;51.856;0.150;2022-08-19T16:17:11;100507.59;;;26.44;25.73
65151;BME280;51918;51.856;0.150;2022-08-19T16:22:12;100517.41;;;26.23;25.74
65151;BME280;51918;51.856;0.150;2022-08-19T16:27:12;100515.81;;;25.81;26.22
65151;BME280;51918;51.856;0.150;2022-08-19T16:32:14;100528.75;;;25.77;26.80
65151;BME280;51918;51.856;0.150;2022-08-19T16:37:15;100530.56;;;25.62;26.37
65151;BME280;51918;51.856;0.150;2022-08-19T16:42:16;100528.72;;;25.62;26.75
65151;BME280;51918;51.856;0.150;2022-08-19T16:47:18;100528.19;;;25.55;27.09
65151;BME280;51918;51.856;0.150;2022-08-19T16:52:20;100531.81;;;25.28;27.92
65151;BME280;51918;51.856;0.150;2022-08-19T16:57:21;100536.97;;;25.08;27.40
65151;BME280;51918;51.856;0.150;2022-08-19T17:02:23;100543.50;;;24.85;27.42
65151;BME280;51918;51.856;0.150;2022-08-19T17:07:24;100543.22;;;24.86;27.90
65151;BME280;51918;51.856;0.150;2022-08-19T17:12:25;100550.50;;;24.64;28.12
65151;BME280;51918;51.856;0.150;2022-08-19T17:17:29;100557.84;;;24.62;28.38
65151;BME280;51918;51.856;0.150;2022-08-19T17:22:30;100567.63;;;24.34;28.87
65151;BME280;51918;51.856;0.150;2022-08-19T17:27:30;100560.09;;;24.10;28.90
65151;BME280;51918;51.856;0.150;2022-08-19T17:32:32;100563.22;;;24.07;28.95
65151;BME280;51918;51.856;0.150;2022-08-19T17:37:34;100567.06;;;23.94;28.92
65151;BME280;51918;51.856;0.150;2022-08-19T17:42:35;100572.44;;;23.83;29.35
65151;BME280;51918;51.856;0.150;2022-08-19T17:47:37;100578.63;;;23.71;29.75
65151;BME280;51918;51.856;0.150;2022-08-19T17:52:39;100573.34;;;23.66;29.36
65151;BME280;51918;51.856;0.150;2022-08-19T17:57:40;100573.47;;;23.54;29.48
65151;BME280;51918;51.856;0.150;2022-08-19T18:02:47;100575.34;;;23.59;30.25
65151;BME280;51918;51.856;0.150;2022-08-19T18:07:48;100580.25;;;23.50;30.00
65151;BME280;51918;51.856;0.150;2022-08-19T18:12:49;100583.50;;;23.36;29.80
65151;BME280;51918;51.856;0.150;2022-08-19T18:17:51;100586.53;;;23.27;30.41
65151;BME280;51918;51.856;0.150;2022-08-19T18:22:52;100585.88;;;23.15;30.10
65151;BME280;51918;51.856;0.150;2022-08-19T18:27:54;100590.06;;;22.94;30.32
65151;BME280;51918;51.856;0.150;2022-08-19T18:32:57;100594.44;;;22.71;30.58
65151;BME280;51918;51.856;0.150;2022-08-19T18:37:59;100603.53;;;22.64;31.18
65151;BME280;51918;51.856;0.150;2022-08-19T18:43:00;100620.84;;;22.48;31.14
65151;BME280;51918;51.856;0.150;2022-08-19T18:48:04;100619.22;;;22.30;31.59
65151;BME280;51918;51.856;0.150;2022-08-19T18:53:05;100620.31;;;22.17;31.88
65151;BME280;51918;51.856;0.150;2022-08-19T18:58:05;100627.38;;;22.00;32.10
65151;BME280;51918;51.856;0.150;2022-08-19T19:03:07;100636.78;;;21.84;32.51
65151;BME280;51918;51.856;0.150;2022-08-19T19:08:08;100639.09;;;21.68;32.72
65151;BME280;51918;51.856;0.150;2022-08-19T19:13:08;100646.03;;;21.51;32.98
65151;BME280;51918;51.856;0.150;2022-08-19T19:18:10;100655.53;;;21.28;33.28
65151;BME280;51918;51.856;0.150;2022-08-19T19:23:11;100666.69;;;21.12;33.81
65151;BME280;51918;51.856;0.150;2022-08-19T19:28:11;100662.91;;;20.96;34.06
65151;BME280;51918;51.856;0.150;2022-08-19T19:33:13;100682.91;;;20.79;34.88
65151;BME280;51918;51.856;0.150;2022-08-19T19:38:14;100688.00;;;20.62;34.79
65151;BME280;51918;51.856;0.150;2022-08-19T19:43:15;100685.44;;;20.43;35.20
65151;BME280;51918;51.856;0.150;2022-08-19T19:48:17;100690.94;;;20.23;35.56
65151;BME280;51918;51.856;0.150;2022-08-19T19:53:17;100706.41;;;20.06;35.75
65151;BME280;51918;51.856;0.150;2022-08-19T19:58:18;100709.16;;;19.93;36.46
65151;BME280;51918;51.856;0.150;2022-08-19T20:03:20;100707.72;;;19.79;37.06
65151;BME280;51918;51.856;0.150;2022-08-19T20:08:21;100706.88;;;19.66;36.79
65151;BME280;51918;51.856;0.150;2022-08-19T20:13:22;100712.66;;;19.50;37.27
65151;BME280;51918;51.856;0.150;2022-08-19T20:18:24;100719.19;;;19.34;37.72
65151;BME280;51918;51.856;0.150;2022-08-19T20:23:25;100722.50;;;19.23;38.51
65151;BME280;51918;51.856;0.150;2022-08-19T20:28:26;100727.03;;;19.09;39.13
65151;BME280;51918;51.856;0.150;2022-08-19T20:33:28;100739.59;;;18.94;39.89
65151;BME280;51918;51.856;0.150;2022-08-19T20:38:29;100728.44;;;18.80;39.51
65151;BME280;51918;51.856;0.150;2022-08-19T20:43:30;100735.75;;;18.64;39.42
65151;BME280;51918;51.856;0.150;2022-08-19T20:48:32;100732.78;;;18.54;40.70
65151;BME280;51918;51.856;0.150;2022-08-19T20:53:33;100735.44;;;18.41;40.84
65151;BME280;51918;51.856;0.150;2022-08-19T20:58:33;100745.13;;;18.27;41.59
65151;BME280;51918;51.856;0.150;2022-08-19T21:03:36;100738.00;;;18.02;41.24
65151;BME280;51918;51.856;0.150;2022-08-19T21:08:38;100742.81;;;18.05;41.20
65151;BME280;51918;51.856;0.150;2022-08-19T21:13:39;100752.44;;;17.92;41.57
65151;BME280;51918;51.856;0.150;2022-08-19T21:18:41;100752.09;;;17.81;41.97
65151;BME280;51918;51.856;0.150;2022-08-19T21:23:42;100745.72;;;17.71;41.70
65151;BME280;51918;51.856;0.150;2022-08-19T21:28:42;100750.50;;;17.47;41.97
65151;BME280;51918;51.856;0.150;2022-08-19T21:33:44;100749.72;;;17.53;42.46
65151;BME280;51918;51.856;0.150;2022-08-19T21:38:45;100748.91;;;17.46;42.42
65151;BME280;51918;51.856;0.150;2022-08-19T21:43:45;100754.91;;;17.20;41.90
65151;BME280;51918;51.856;0.150;2022-08-19T21:48:47;100754.72;;;17.28;42.56
65151;BME280;51918;51.856;0.150;2022-08-19T21:53:48;100764.09;;;17.22;43.16
65151;BME280;51918;51.856;0.150;2022-08-19T21:58:48;100767.31;;;17.18;43.40
65151;BME280;51918;51.856;0.150;2022-08-19T22:03:51;100772.50;;;17.11;43.55
65151;BME280;51918;51.856;0.150;2022-08-19T22:08:51;100779.09;;;17.07;43.72
65151;BME280;51918;51.856;0.150;2022-08-19T22:13:52;100780.25;;;16.85;44.11
65151;BME280;51918;51.856;0.150;2022-08-19T22:18:54;100786.47;;;16.90;44.37
65151;BME280;51918;51.856;0.150;2022-08-19T22:23:54;100794.84;;;16.86;44.73
65151;BME280;51918;51.856;0.150;2022-08-19T22:28:54;100792.16;;;16.59;44.57
65151;BME280;51918;51.856;0.150;2022-08-19T22:33:56;100800.16;;;16.71;45.11
65151;BME280;51918;51.856;0.150;2022-08-19T22:38:57;100806.97;;;16.65;45.33
65151;BME280;51918;51.856;0.150;2022-08-19T22:43:58;100805.09;;;16.46;45.61
65151;BME280;51918;51.856;0.150;2022-08-19T22:49:00;100809.09;;;16.55;46.08
65151;BME280;51918;51.856;0.150;2022-08-19T22:54:01;100799.31;;;16.50;46.60
65151;BME280;51918;51.856;0.150;2022-08-19T22:59:01;100805.59;;;16.28;46.61
65151;BME280;51918;51.856;0.150;2022-08-19T23:04:03;100809.63;;;16.37;47.55
65151;BME280;51918;51.856;0.150;2022-08-19T23:09:06;100812.19;;;16.30;47.27
65151;BME280;51918;51.856;0.150;2022-08-19T23:14:07;100812.97;;;16.24;47.53
65151;BME280;51918;51.856;0.150;2022-08-19T23:19:09;100816.13;;;16.19;48.33
65151;BME280;51918;51.856;0.150;2022-08-19T23:24:10;100807.31;;;16.14;48.35
65151;BME280;51918;51.856;0.150;2022-08-19T23:29:11;100802.28;;;16.06;48.31
65151;BME280;51918;51.856;0.150;2022-08-19T23:34:12;100800.34;;;15.86;48.54
65151;BME280;51918;51.856;0.150;2022-08-19T23:39:13;100804.59;;;15.94;49.15
65151;BME280;51918;51.856;0.150;2022-08-19T23:44:13;100801.81;;;15.74;49.11
65151;BME280;51918;51.856;0.150;2022-08-19T23:49:15;100799.13;;;15.82;49.98
65151;BME280;51918;51.856;0.150;2022-08-19T23:54:16;100795.28;;;15.78;50.39
65151;BME280;51918;51.856;0.150;2022-08-19T23:59:17;100803.00;;;15.71;50.32
